createdAt,value
2022-09-17T00:01:44.937Z,12.62
2022-09-17T00:04:13.340Z,12.60
2022-09-17T00:06:43.943Z,12.62
2022-09-17T00:09:12.479Z,12.63
2022-09-17T00:11:43.869Z,12.64
2022-09-17T00:14:16.721Z,12.58
2022-09-17T00:16:47.470Z,12.54
2022-09-17T00:19:18.459Z,12.53
2022-09-17T00:21:48.411Z,12.50
2022-09-17T00:24:18.647Z,12.52
2022-09-17T00:26:47.116Z,12.41
2022-09-17T00:29:16.457Z,12.43
2022-09-17T00:31:45.328Z,12.40
2022-09-17T00:34:13.873Z,12.40
2022-09-17T00:36:43.188Z,12.32
2022-09-17T00:39:16.071Z,12.33
2022-09-17T00:41:45.460Z,12.28
2022-09-17T00:44:44.202Z,12.25
2022-09-17T00:47:21.906Z,12.22
2022-09-17T00:49:52.459Z,12.17
2022-09-17T00:52:25.293Z,12.08
2022-09-17T00:55:01.079Z,12.02
2022-09-17T00:57:32.162Z,11.97
2022-09-17T01:00:01.410Z,12.02
2022-09-17T01:02:30.076Z,11.93
2022-09-17T01:04:58.467Z,11.81
2022-09-17T01:07:45.578Z,11.86
2022-09-17T01:10:35.071Z,11.80
2022-09-17T01:13:13.834Z,11.78
2022-09-17T01:15:50.553Z,11.74
2022-09-17T01:18:33.750Z,11.69
2022-09-17T01:21:37.974Z,11.66
2022-09-17T01:24:44.846Z,11.60
2022-09-17T01:28:05.851Z,11.56
2022-09-17T01:30:44.549Z,11.57
2022-09-17T01:33:19.008Z,11.53
2022-09-17T01:35:54.419Z,11.54
2022-09-17T01:38:28.586Z,11.50
2022-09-17T01:41:06.620Z,11.46
2022-09-17T01:43:44.583Z,11.45
2022-09-17T01:46:21.981Z,11.47
2022-09-17T01:48:57.690Z,11.49
2022-09-17T01:51:30.011Z,11.55
2022-09-17T01:54:02.858Z,11.52
2022-09-17T01:56:37.592Z,11.45
2022-09-17T01:59:12.154Z,11.47
2022-09-17T02:01:45.248Z,11.35
2022-09-17T02:04:22.103Z,11.28
2022-09-17T02:06:57.540Z,11.27
2022-09-17T02:09:32.495Z,11.25
2022-09-17T02:12:05.136Z,11.24
2022-09-17T02:14:39.638Z,11.22
2022-09-17T02:17:17.143Z,11.24
2022-09-17T02:19:45.785Z,11.25
2022-09-17T02:22:23.348Z,11.21
2022-09-17T02:25:01.921Z,11.17
2022-09-17T02:27:38.486Z,11.11
2022-09-17T02:30:08.314Z,11.10
2022-09-17T02:32:38.089Z,11.08
2022-09-17T02:35:08.486Z,11.04
2022-09-17T02:37:37.164Z,10.91
2022-09-17T02:40:07.640Z,10.85
2022-09-17T02:42:55.626Z,10.83
2022-09-17T02:45:38.270Z,10.85
2022-09-17T02:48:22.248Z,10.74
2022-09-17T02:51:10.269Z,10.74
2022-09-17T02:53:47.505Z,10.75
2022-09-17T02:56:22.643Z,10.77
2022-09-17T02:58:59.532Z,10.78
2022-09-17T03:01:36.467Z,10.73
2022-09-17T03:04:10.577Z,10.68
2022-09-17T03:06:39.414Z,10.65
2022-09-17T03:09:08.490Z,10.66
2022-09-17T03:11:36.859Z,10.68
2022-09-17T03:14:05.785Z,10.73
2022-09-17T03:16:34.191Z,10.67
2022-09-17T03:19:03.039Z,10.69
2022-09-17T03:21:33.099Z,10.69
2022-09-17T03:24:01.461Z,10.63
2022-09-17T03:26:30.273Z,10.61
2022-09-17T03:28:59.046Z,10.62
2022-09-17T03:31:29.434Z,10.59
2022-09-17T03:33:58.715Z,10.65
2022-09-17T03:36:27.899Z,10.69
2022-09-17T03:38:58.211Z,10.72
2022-09-17T03:41:27.544Z,10.78
2022-09-17T03:43:56.325Z,10.78
2022-09-17T03:46:25.091Z,10.82
2022-09-17T03:48:53.396Z,10.85
2022-09-17T03:51:22.520Z,10.90
2022-09-17T03:53:51.349Z,10.94
2022-09-17T03:56:21.377Z,10.92
2022-09-17T03:58:49.678Z,10.91
2022-09-17T04:01:18.720Z,10.91
2022-09-17T04:03:47.422Z,10.91
2022-09-17T04:06:15.751Z,10.91
2022-09-17T04:08:44.995Z,10.91
2022-09-17T04:11:13.410Z,10.92
2022-09-17T04:13:43.875Z,10.86
2022-09-17T04:16:13.164Z,10.80
2022-09-17T04:18:41.510Z,10.69
2022-09-17T04:21:10.481Z,10.76
2022-09-17T04:23:39.189Z,10.81
2022-09-17T04:26:07.662Z,10.81
2022-09-17T04:28:36.845Z,10.81
2022-09-17T04:31:07.185Z,10.76
2022-09-17T04:33:36.026Z,10.72
2022-09-17T04:36:04.911Z,10.72
2022-09-17T04:38:33.937Z,10.67
2022-09-17T04:41:02.395Z,10.69
2022-09-17T04:43:31.473Z,10.71
2022-09-17T04:45:59.793Z,10.67
2022-09-17T04:48:30.307Z,10.69
2022-09-17T04:50:59.060Z,10.71
2022-09-17T04:53:27.362Z,10.72
2022-09-17T04:55:56.020Z,10.74
2022-09-17T04:58:24.867Z,10.78
2022-09-17T05:00:53.296Z,10.84
2022-09-17T05:03:22.053Z,10.86
2022-09-17T05:05:52.263Z,10.91
2022-09-17T05:08:22.881Z,10.93
2022-09-17T05:10:52.171Z,10.98
2022-09-17T05:13:20.549Z,11.04
2022-09-17T05:15:49.503Z,11.00
2022-09-17T05:18:17.847Z,11.00
2022-09-17T05:20:46.617Z,10.99
2022-09-17T05:23:16.265Z,10.94
2022-09-17T05:25:45.170Z,10.91
2022-09-17T05:28:13.467Z,10.86
2022-09-17T05:30:42.844Z,10.86
2022-09-17T05:33:11.377Z,10.83
2022-09-17T05:35:40.774Z,10.82
2022-09-17T05:38:09.125Z,10.87
2022-09-17T05:40:39.354Z,10.92
2022-09-17T05:43:09.630Z,10.96
2022-09-17T05:45:38.853Z,10.97
2022-09-17T05:48:10.022Z,10.93
2022-09-17T05:50:38.750Z,10.92
2022-09-17T05:53:09.041Z,10.87
2022-09-17T05:55:39.737Z,10.89
2022-09-17T05:58:12.481Z,10.86
2022-09-17T06:00:43.052Z,10.79
2022-09-17T06:03:12.954Z,10.81
2022-09-17T06:05:41.573Z,10.79
2022-09-17T06:08:10.785Z,10.80
2022-09-17T06:10:41.417Z,10.84
2022-09-17T06:13:10.671Z,10.78
2022-09-17T06:15:39.023Z,10.81
2022-09-17T06:18:08.010Z,10.85
2022-09-17T06:20:36.667Z,10.82
2022-09-17T06:23:04.989Z,10.86
2022-09-17T06:25:34.267Z,10.83
2022-09-17T06:28:05.177Z,10.84
2022-09-17T06:30:33.868Z,10.82
2022-09-17T06:33:02.698Z,10.82
2022-09-17T06:35:31.891Z,10.73
2022-09-17T06:38:00.170Z,10.80
2022-09-17T06:40:29.747Z,10.85
2022-09-17T06:42:58.601Z,10.86
2022-09-17T06:45:29.467Z,10.90
2022-09-17T06:47:58.004Z,10.86
2022-09-17T06:50:27.029Z,10.85
2022-09-17T06:52:55.856Z,10.83
2022-09-17T06:55:24.673Z,10.84
2022-09-17T06:57:53.866Z,10.80
2022-09-17T07:00:22.205Z,10.77
2022-09-17T07:02:59.457Z,10.84
2022-09-17T07:05:29.802Z,10.87
2022-09-17T07:07:58.575Z,10.91
2022-09-17T07:10:27.942Z,10.91
2022-09-17T07:12:56.319Z,10.91
2022-09-17T07:15:25.700Z,10.97
2022-09-17T07:17:54.771Z,10.99
2022-09-17T07:20:24.456Z,10.99
2022-09-17T07:22:57.540Z,11.01
2022-09-17T07:25:26.564Z,10.95
2022-09-17T07:27:57.120Z,10.96
2022-09-17T07:30:25.798Z,11.13
2022-09-17T07:32:54.176Z,11.22
2022-09-17T07:35:24.683Z,11.29
2022-09-17T07:37:53.007Z,11.40
2022-09-17T07:40:22.437Z,11.37
2022-09-17T07:42:50.926Z,11.36
2022-09-17T07:45:19.983Z,11.30
2022-09-17T07:47:48.682Z,11.23
2022-09-17T07:50:18.119Z,11.28
2022-09-17T07:52:49.718Z,11.41
2022-09-17T07:55:18.434Z,11.44
2022-09-17T07:57:52.456Z,11.65
2022-09-17T08:00:21.741Z,11.85
2022-09-17T08:02:54.488Z,11.90
2022-09-17T08:05:23.823Z,11.98
2022-09-17T08:07:54.850Z,12.20
2022-09-17T08:10:24.303Z,12.19
2022-09-17T08:12:57.519Z,12.21
2022-09-17T08:15:26.969Z,12.33
2022-09-17T08:17:55.325Z,12.28
2022-09-17T08:20:26.714Z,12.16
2022-09-17T08:23:03.358Z,11.98
2022-09-17T08:25:31.910Z,11.85
2022-09-17T08:28:00.916Z,11.77
2022-09-17T08:30:29.191Z,11.57
2022-09-17T08:32:58.677Z,11.56
2022-09-17T08:35:28.056Z,11.53
2022-09-17T08:37:57.210Z,11.51
2022-09-17T08:40:27.805Z,11.44
2022-09-17T08:43:00.921Z,11.55
2022-09-17T08:45:30.778Z,11.73
2022-09-17T08:48:05.446Z,11.78
2022-09-17T08:50:39.409Z,11.78
2022-09-17T08:53:18.974Z,11.71
2022-09-17T08:55:55.623Z,11.47
2022-09-17T08:58:54.879Z,11.52
2022-09-17T09:01:33.316Z,11.40
2022-09-17T09:04:45.202Z,11.31
2022-09-17T09:07:19.047Z,11.20
2022-09-17T09:09:54.039Z,11.06
2022-09-17T09:12:27.975Z,10.97
2022-09-17T09:15:00.994Z,10.88
2022-09-17T09:17:39.991Z,10.86
2022-09-17T09:20:17.445Z,10.93
2022-09-17T09:22:51.930Z,10.91
2022-09-17T09:25:24.718Z,10.95
2022-09-17T09:28:08.456Z,11.01
2022-09-17T09:30:52.024Z,10.92
2022-09-17T09:33:27.718Z,10.83
2022-09-17T09:35:57.202Z,10.69
2022-09-17T09:38:34.178Z,10.72
2022-09-17T09:41:10.614Z,10.67
2022-09-17T09:46:48.060Z,10.45
2022-09-17T09:49:30.609Z,10.38
2022-09-17T09:52:14.753Z,10.37
2022-09-17T09:54:56.339Z,10.43
2022-09-17T09:57:36.745Z,10.52
2022-09-17T10:00:28.925Z,10.57
2022-09-17T10:03:04.076Z,10.63
2022-09-17T10:05:33.373Z,10.68
2022-09-17T10:08:02.556Z,10.69
2022-09-17T10:10:30.931Z,10.78
2022-09-17T10:13:08.615Z,10.75
2022-09-17T10:15:38.841Z,10.67
2022-09-17T10:18:18.018Z,10.69
2022-09-17T10:20:55.426Z,10.67
2022-09-17T10:23:25.442Z,10.88
2022-09-17T10:25:56.048Z,11.01
2022-09-17T10:28:32.558Z,11.12
2022-09-17T10:31:09.009Z,11.06
2022-09-17T10:33:41.069Z,11.14
2022-09-17T10:36:14.720Z,11.27
2022-09-17T10:38:46.136Z,11.35
2022-09-17T10:41:18.988Z,11.35
2022-09-17T10:43:47.782Z,11.28
2022-09-17T10:46:24.050Z,11.23
2022-09-17T10:49:10.533Z,11.23
2022-09-17T10:51:40.131Z,11.27
2022-09-17T10:54:24.404Z,11.36
2022-09-17T10:56:57.604Z,11.27
2022-09-17T10:59:48.447Z,11.22
2022-09-17T11:02:40.781Z,11.26
2022-09-17T11:05:28.136Z,11.41
2022-09-17T11:08:02.347Z,11.68
2022-09-17T11:10:43.830Z,12.15
2022-09-17T11:13:23.677Z,12.58
2022-09-17T11:16:08.773Z,12.49
2022-09-17T11:18:41.961Z,12.37
2022-09-17T11:21:32.044Z,12.07
2022-09-17T11:24:31.059Z,12.03
2022-09-17T11:27:08.799Z,12.03
2022-09-17T11:29:54.883Z,12.01
2022-09-17T11:32:39.670Z,11.94
2022-09-17T11:35:13.142Z,11.89
2022-09-17T11:37:49.013Z,11.86
2022-09-17T11:40:22.780Z,11.88
2022-09-17T11:42:58.441Z,11.96
2022-09-17T11:45:32.212Z,11.98
2022-09-17T11:48:07.390Z,12.05
2022-09-17T11:50:41.987Z,12.19
2022-09-17T11:53:19.962Z,12.29
2022-09-17T11:55:53.760Z,12.33
2022-09-17T11:58:29.167Z,12.28
2022-09-17T12:01:04.109Z,12.31
2022-09-17T12:03:36.943Z,12.43
2022-09-17T12:06:13.271Z,12.55
2022-09-17T12:08:50.270Z,12.56
2022-09-17T12:11:22.717Z,12.52
2022-09-17T12:13:55.259Z,12.52
2022-09-17T12:16:28.024Z,12.43
2022-09-17T12:19:01.994Z,12.36
2022-09-17T12:21:37.594Z,12.24
2022-09-17T12:24:16.980Z,12.11
2022-09-17T12:27:10.654Z,12.06
2022-09-17T12:30:04.067Z,12.37
2022-09-17T12:32:57.743Z,12.80
2022-09-17T12:36:07.265Z,12.96
2022-09-17T12:39:03.333Z,12.98
2022-09-17T12:41:44.352Z,12.92
2022-09-17T12:44:29.486Z,12.87
2022-09-17T12:47:14.428Z,12.73
2022-09-17T12:50:00.266Z,12.66
2022-09-17T12:52:41.727Z,12.59
2022-09-17T12:55:49.019Z,12.57
2022-09-17T12:58:32.794Z,12.50
2022-09-17T13:01:06.725Z,12.38
2022-09-17T13:03:41.355Z,12.42
2022-09-17T13:06:43.339Z,12.54
2022-09-17T13:09:42.294Z,12.79
2022-09-17T13:12:17.945Z,12.98
2022-09-17T13:15:18.055Z,13.35
2022-09-17T13:18:12.781Z,13.66
2022-09-17T13:20:56.269Z,14.28
2022-09-17T13:23:34.417Z,14.91
2022-09-17T13:26:06.229Z,15.31
2022-09-17T13:28:44.646Z,15.87
2022-09-17T13:31:24.052Z,16.25
2022-09-17T13:33:57.518Z,16.81
2022-09-17T13:36:46.958Z,17.09
2022-09-17T13:39:45.087Z,16.93
2022-09-17T13:42:19.376Z,16.91
2022-09-17T13:44:52.319Z,16.87
2022-09-17T13:47:29.545Z,16.36
2022-09-17T13:50:03.023Z,16.03
2022-09-17T13:52:37.862Z,17.06
2022-09-17T13:55:08.932Z,17.54
2022-09-17T13:57:50.612Z,17.85
2022-09-17T14:00:52.575Z,17.73
2022-09-17T14:03:58.253Z,17.33
2022-09-17T14:06:55.871Z,16.79
2022-09-17T14:09:39.328Z,16.38
2022-09-17T14:12:41.755Z,15.92
2022-09-17T14:15:43.716Z,15.56
2022-09-17T14:18:43.745Z,15.62
2022-09-17T14:21:27.024Z,15.96
2022-09-17T14:24:00.821Z,15.91
2022-09-17T14:27:14.361Z,15.73
2022-09-17T14:29:56.743Z,15.29
2022-09-17T14:32:33.613Z,15.03
2022-09-17T14:35:05.627Z,15.03
2022-09-17T14:37:36.930Z,15.21
2022-09-17T14:40:10.269Z,15.39
2022-09-17T14:42:40.459Z,15.35
2022-09-17T14:45:17.708Z,15.43
2022-09-17T14:47:46.669Z,15.56
2022-09-17T14:50:23.263Z,15.71
2022-09-17T14:52:55.486Z,15.68
2022-09-17T14:55:26.497Z,15.75
2022-09-17T14:57:59.186Z,15.90
2022-09-17T15:00:32.967Z,16.02
2022-09-17T15:03:02.512Z,15.98
2022-09-17T15:05:33.782Z,15.73
2022-09-17T15:08:18.248Z,15.44
2022-09-17T15:10:50.247Z,15.19
2022-09-17T15:13:22.530Z,14.96
2022-09-17T15:16:01.814Z,14.74
2022-09-17T15:18:38.062Z,14.73
2022-09-17T15:21:22.231Z,15.07
2022-09-17T15:23:59.318Z,15.38
2022-09-17T15:26:32.009Z,15.34
2022-09-17T15:29:03.409Z,14.99
2022-09-17T15:31:32.132Z,14.64
2022-09-17T15:34:02.113Z,14.23
2022-09-17T15:36:32.017Z,13.97
2022-09-17T15:39:02.646Z,13.97
2022-09-17T15:41:34.304Z,13.88
2022-09-17T15:44:29.802Z,13.66
2022-09-17T15:47:32.543Z,13.62
2022-09-17T15:50:20.279Z,13.55
2022-09-17T15:52:49.362Z,13.40
2022-09-17T15:55:37.411Z,13.29
2022-09-17T15:58:20.455Z,13.72
2022-09-17T16:00:54.136Z,14.04
2022-09-17T16:04:11.387Z,14.25
2022-09-17T16:06:40.733Z,14.14
2022-09-17T16:09:41.261Z,13.91
2022-09-17T16:12:14.175Z,13.69
2022-09-17T16:14:48.848Z,13.57
2022-09-17T16:17:36.595Z,13.72
2022-09-17T16:20:14.450Z,13.82
2022-09-17T16:22:42.942Z,13.86
2022-09-17T16:25:12.569Z,13.94
2022-09-17T16:27:49.621Z,13.85
2022-09-17T16:30:20.897Z,13.94
2022-09-17T16:32:50.489Z,13.96
2022-09-17T16:35:21.298Z,13.92
2022-09-17T16:37:51.337Z,13.74
2022-09-17T16:40:20.339Z,13.57
2022-09-17T16:42:51.234Z,13.35
2022-09-17T16:45:20.220Z,13.26
2022-09-17T16:47:49.388Z,13.12
2022-09-17T16:50:19.867Z,13.05
2022-09-17T16:52:49.018Z,12.93
2022-09-17T16:55:18.603Z,12.87
2022-09-17T16:57:47.955Z,12.96
2022-09-17T17:00:21.165Z,12.98
2022-09-17T17:02:55.243Z,12.97
2022-09-17T17:05:25.032Z,13.01
2022-09-17T17:07:55.170Z,13.04
2022-09-17T17:10:24.074Z,13.07
2022-09-17T17:12:53.330Z,13.06
2022-09-17T17:15:24.120Z,13.04
2022-09-17T17:17:52.605Z,12.99
2022-09-17T17:20:21.366Z,12.89
2022-09-17T17:22:51.167Z,12.78
2022-09-17T17:25:20.173Z,12.63
2022-09-17T17:27:48.996Z,12.60
2022-09-17T17:30:18.834Z,12.54
2022-09-17T17:32:53.622Z,12.47
2022-09-17T17:35:22.968Z,12.37
2022-09-17T17:37:51.801Z,12.22
2022-09-17T17:40:20.403Z,12.07
2022-09-17T17:42:53.459Z,12.11
2022-09-17T17:45:22.085Z,12.06
2022-09-17T17:47:53.718Z,12.02
2022-09-17T17:50:22.432Z,11.97
2022-09-17T17:52:50.800Z,11.99
2022-09-17T17:55:20.090Z,11.97
2022-09-17T17:57:48.942Z,11.90
2022-09-17T18:00:18.747Z,11.90
2022-09-17T18:02:47.116Z,11.83
2022-09-17T18:05:17.695Z,11.71
2022-09-17T18:07:46.025Z,11.62
2022-09-17T18:10:15.314Z,11.53
2022-09-17T18:12:50.476Z,11.53
2022-09-17T18:15:19.527Z,11.56
2022-09-17T18:17:50.077Z,11.54
2022-09-17T18:23:12.399Z,11.53
2022-09-17T18:25:41.178Z,11.50
2022-09-17T18:28:09.671Z,11.48
2022-09-17T18:30:38.995Z,11.55
2022-09-17T18:33:07.942Z,11.53
2022-09-17T18:35:38.414Z,11.54
2022-09-17T18:38:07.055Z,11.51
2022-09-17T18:40:36.250Z,11.47
2022-09-17T18:43:05.515Z,11.41
2022-09-17T18:45:33.868Z,11.44
2022-09-17T18:48:03.615Z,11.37
2022-09-17T18:50:31.905Z,11.32
2022-09-17T18:53:02.561Z,11.28
2022-09-17T18:55:31.485Z,11.29
2022-09-17T18:57:59.809Z,11.29
2022-09-17T19:00:28.982Z,11.32
2022-09-17T19:02:57.342Z,11.33
2022-09-17T19:05:27.301Z,11.35
2022-09-17T19:07:55.594Z,11.24
2022-09-17T19:10:26.453Z,11.20
2022-09-17T19:12:55.668Z,11.13
2022-09-17T19:15:24.091Z,11.03
2022-09-17T19:17:54.555Z,11.04
2022-09-17T19:20:23.471Z,11.03
2022-09-17T19:22:52.018Z,10.99
2022-09-17T19:25:21.345Z,11.02
2022-09-17T19:27:54.046Z,11.03
2022-09-17T19:30:23.556Z,11.07
2022-09-17T19:32:52.240Z,11.10
2022-09-17T19:35:21.295Z,11.12
2022-09-17T19:37:50.660Z,11.14
2022-09-17T19:40:20.080Z,11.16
2022-09-17T19:42:54.631Z,11.14
2022-09-17T19:45:24.027Z,11.09
2022-09-17T19:47:56.266Z,11.07
2022-09-17T19:50:25.559Z,11.01
2022-09-17T19:52:53.901Z,10.98
2022-09-17T19:55:25.296Z,11.02
2022-09-17T19:57:55.142Z,10.99
2022-09-17T20:00:23.867Z,10.93
2022-09-17T20:02:53.145Z,10.93
2022-09-17T20:05:21.879Z,10.87
2022-09-17T20:07:50.596Z,10.84
2022-09-17T20:10:18.901Z,10.87
2022-09-17T20:12:48.155Z,10.88
2022-09-17T20:15:18.139Z,10.85
2022-09-17T20:17:46.832Z,10.87
2022-09-17T20:20:16.146Z,10.90
2022-09-17T20:22:44.426Z,10.86
2022-09-17T20:25:13.755Z,10.85
2022-09-17T20:27:42.050Z,10.84
2022-09-17T20:30:11.894Z,10.88
2022-09-17T20:32:42.070Z,10.83
2022-09-17T20:35:10.480Z,10.78
2022-09-17T20:40:27.549Z,10.76
2022-09-17T20:42:56.465Z,10.74
2022-09-17T20:45:24.814Z,10.73
2022-09-17T20:47:56.649Z,10.81
2022-09-17T20:50:26.482Z,10.82
2022-09-17T20:52:54.770Z,10.78
2022-09-17T20:55:23.501Z,10.73
2022-09-17T20:57:53.669Z,10.73
2022-09-17T21:00:25.601Z,10.66
2022-09-17T21:02:56.346Z,10.70
2022-09-17T21:05:25.173Z,10.66
2022-09-17T21:07:54.204Z,10.65
2022-09-17T21:10:22.903Z,10.62
2022-09-17T21:12:51.228Z,10.64
2022-09-17T21:15:20.260Z,10.68
2022-09-17T21:17:49.283Z,10.70
2022-09-17T21:20:18.946Z,10.66
2022-09-17T21:22:48.458Z,10.64
2022-09-17T21:25:17.287Z,10.57
2022-09-17T21:27:46.654Z,10.55
2022-09-17T21:30:15.405Z,10.51
2022-09-17T21:32:43.770Z,10.45
2022-09-17T21:35:12.496Z,10.43
2022-09-17T21:37:42.137Z,10.36
2022-09-17T21:40:11.721Z,10.27
2022-09-17T21:42:40.103Z,10.28
2022-09-17T21:45:09.108Z,10.28
2022-09-17T21:47:37.456Z,10.35
2022-09-17T21:50:07.322Z,10.34
2022-09-17T21:52:36.353Z,10.36
2022-09-17T21:55:07.001Z,10.36
2022-09-17T21:57:36.031Z,10.28
2022-09-17T22:00:07.691Z,10.18
2022-09-17T22:02:37.432Z,10.16
2022-09-17T22:05:07.201Z,10.09
2022-09-17T22:07:36.255Z,10.07
2022-09-17T22:10:07.319Z,10.07
2022-09-17T22:12:35.651Z,10.07
2022-09-17T22:15:05.260Z,10.04
2022-09-17T22:17:33.766Z,10.06
2022-09-17T22:20:03.074Z,10.00
2022-09-17T22:22:31.866Z,9.96
2022-09-17T22:25:00.196Z,10.01
2022-09-17T22:27:32.715Z,10.01
2022-09-17T22:30:01.217Z,10.01
2022-09-17T22:32:30.086Z,10.03
2022-09-17T22:34:58.757Z,10.00
2022-09-17T22:37:28.790Z,9.98
2022-09-17T22:39:57.277Z,9.88
2022-09-17T22:42:26.424Z,9.91
2022-09-17T22:44:56.550Z,9.92
2022-09-17T22:47:24.879Z,9.89
2022-09-17T22:49:54.072Z,9.92
2022-09-17T22:52:22.410Z,9.94
2022-09-17T22:54:51.486Z,9.91
2022-09-17T22:57:19.836Z,9.91
2022-09-17T22:59:48.582Z,9.87
2022-09-17T23:02:19.168Z,9.83
2022-09-17T23:04:47.727Z,9.79
2022-09-17T23:07:16.565Z,9.77
2022-09-17T23:09:44.880Z,9.77
2022-09-17T23:12:13.910Z,9.70
2022-09-17T23:14:42.593Z,9.69
2022-09-17T23:17:11.281Z,9.69
2022-09-17T23:19:41.363Z,9.68
2022-09-17T23:22:10.058Z,9.67
2022-09-17T23:24:38.431Z,9.64
2022-09-17T23:27:07.802Z,9.64
2022-09-17T23:29:36.082Z,9.62
2022-09-17T23:32:05.223Z,9.63
2022-09-17T23:34:35.365Z,9.63
2022-09-17T23:37:05.060Z,9.67
2022-09-17T23:39:34.063Z,9.66
2022-09-17T23:42:02.418Z,9.68
2022-09-17T23:44:31.161Z,9.67
2022-09-17T23:47:00.138Z,9.66
2022-09-17T23:49:28.667Z,9.66
2022-09-17T23:51:57.704Z,9.63
2022-09-17T23:54:27.897Z,9.63
2022-09-17T23:56:56.924Z,9.72
2022-09-17T23:59:26.022Z,9.73
